Time;durP1;ratioP1;P1;durP2;ratioP2;P2;SDS_P1;SDS_P2;PMS_P1;PMS_P2;Temp;Humidity;BMP_temperature;BMP_pressure;BME280_temperature;BME280_humidity;BME280_pressure;Samples;Min_cycle;Max_cycle;Signal;HPM_P1;HPM_P2
2021/08/06 00:01:00;168175.00;0.56;291.12;71841.00;0.24;124.94;;;;;22.80;1.00;;;;;;2281647;60;1037;-83
2021/08/06 00:03:28;204449.00;0.68;353.58;75498.00;0.25;131.26;;;;;22.70;1.00;;;;;;2288444;60;1202;-84
2021/08/06 00:05:55;161781.00;0.54;280.11;68537.00;0.23;119.23;;;;;22.50;1.00;;;;;;2278394;60;1046;-82
2021/08/06 00:08:23;171799.00;0.57;297.37;61207.00;0.20;106.56;;;;;22.40;1.00;;;;;;2281992;60;955;-84
2021/08/06 00:10:50;165585.00;0.55;286.66;66046.00;0.22;114.93;;;;;22.30;1.00;;;;;;2288886;60;1036;-84
2021/08/06 00:13:18;279739.00;0.93;483.09;64355.00;0.21;112.00;;;;;22.20;1.00;;;;;;2281755;60;1995;-83
2021/08/06 00:15:45;349236.00;1.16;602.55;118642.00;0.40;205.74;;;;;22.10;1.00;;;;;;2288432;60;968;-83
2021/08/06 00:20:41;206985.00;0.69;357.95;70119.00;0.23;121.97;;;;;22.00;1.00;;;;;;2290551;60;1396;-84
2021/08/06 00:28:04;217188.00;0.72;375.50;68834.00;0.23;119.75;;;;;21.80;1.00;;;;;;2290805;60;1369;-84
2021/08/06 00:30:32;166769.00;0.56;288.70;66653.00;0.22;115.98;;;;;21.80;1.00;;;;;;2288857;60;979;-82
2021/08/06 00:32:59;436207.00;1.45;752.06;145253.00;0.48;251.63;;;;;21.60;1.00;;;;;;2285901;60;1344;-83
2021/08/06 00:37:54;175320.00;0.58;303.43;57731.00;0.19;100.55;;;;;21.30;1.00;;;;;;2290405;60;1356;-84
2021/08/06 00:40:22;174808.00;0.58;302.55;72097.00;0.24;125.38;;;;;21.40;1.00;;;;;;2278306;60;938;-81
2021/08/06 00:42:49;167111.00;0.56;289.29;58321.00;0.19;101.57;;;;;21.60;1.00;;;;;;2273239;61;1325;-83
2021/08/06 00:45:16;167370.00;0.56;289.74;69398.00;0.23;120.72;;;;;21.80;1.00;;;;;;2262249;61;914;-84
2021/08/06 00:50:13;168798.00;0.56;292.20;68066.00;0.23;118.42;;;;;22.00;1.00;;;;;;2290773;60;1408;-83
2021/08/06 00:52:43;245037.00;0.82;423.42;70749.00;0.24;123.05;;;;;22.00;1.00;;;;;;2288541;60;1361;-84
2021/08/06 00:55:11;178479.00;0.59;308.87;75418.00;0.25;131.12;;;;;21.90;1.00;;;;;;2288523;60;1919;-82
2021/08/06 00:57:38;169848.00;0.57;294.00;75485.00;0.25;131.24;;;;;21.70;1.00;;;;;;2278158;60;962;-83
2021/08/06 01:00:07;193433.00;0.64;334.62;77161.00;0.26;134.13;;;;;21.70;1.00;;;;;;2284242;60;965;-83
2021/08/06 01:02:48;277177.00;0.92;478.68;78923.00;0.26;137.18;;;;;21.70;1.00;;;;;;2284205;60;1262;-83
2021/08/06 01:05:22;252416.00;0.84;436.11;80432.00;0.27;139.78;;;;;21.70;1.00;;;;;;2280689;60;988;-83
2021/08/06 01:10:22;282277.00;0.94;487.45;74920.00;0.25;130.26;;;;;21.90;1.00;;;;;;2290450;60;1389;-82
2021/08/06 01:12:54;335585.00;1.12;579.09;69422.00;0.23;120.76;;;;;22.10;1.00;;;;;;2275745;61;1417;-84
2021/08/06 01:15:21;317271.00;1.06;547.61;65946.00;0.22;114.75;;;;;22.20;1.00;;;;;;2269210;61;2013;-84
2021/08/06 01:17:49;208386.00;0.69;360.36;72826.00;0.24;126.64;;;;;22.30;1.00;;;;;;2275893;61;1037;-83
2021/08/06 01:20:23;197821.00;0.66;342.17;62061.00;0.21;108.04;;;;;22.30;1.00;;;;;;2271899;61;1048;-83
2021/08/06 01:25:43;185566.00;0.62;321.07;72503.00;0.24;126.09;;;;;22.50;1.00;;;;;;2291155;60;1294;-88
2021/08/06 01:28:12;106661.00;0.36;185.07;0.00;0.00;0.62;;;;;22.30;1.00;;;;;;2278262;60;949;-83
2021/08/06 01:30:40;130404.00;0.43;226.03;0.00;0.00;0.62;;;;;22.30;1.00;;;;;;2288677;60;896;-84
2021/08/06 01:33:07;59438.00;0.20;103.51;0.00;0.00;0.62;;;;;22.40;1.00;;;;;;2277463;60;1435;-81
2021/08/06 01:38:02;191430.00;0.64;331.17;0.00;0.00;0.62;;;;;22.30;1.00;;;;;;2290685;60;1454;-84
2021/08/06 01:40:47;119737.00;0.40;207.63;0.00;0.00;0.62;;;;;22.10;1.00;;;;;;2278095;60;951;-84
2021/08/06 01:43:20;21993.00;0.07;38.72;0.00;0.00;0.62;;;;;22.10;1.00;;;;;;2277428;60;1331;-83
2021/08/06 01:55:42;234261.00;0.78;404.88;75258.00;0.25;130.85;;;;;22.00;1.00;;;;;;2528708;39;3442;31
2021/08/06 01:58:11;208110.00;0.69;359.88;69921.00;0.23;121.62;;;;;22.00;1.00;;;;;;2278395;60;1261;-83
2021/08/06 02:00:41;183016.00;0.61;316.68;67453.00;0.22;117.36;;;;;21.90;1.00;;;;;;2271848;61;1024;-84
2021/08/06 02:03:09;166818.00;0.56;288.79;68566.00;0.23;119.28;;;;;21.70;1.00;;;;;;2271841;61;1448;-83
2021/08/06 02:05:36;318726.00;1.06;550.11;100885.00;0.34;175.10;;;;;21.50;1.00;;;;;;2265356;61;1001;-82
2021/08/06 02:08:04;230951.00;0.77;399.18;74901.00;0.25;130.23;;;;;21.40;1.00;;;;;;2261833;61;977;-83
2021/08/06 02:10:31;202162.00;0.67;349.65;68448.00;0.23;119.08;;;;;21.50;1.00;;;;;;2261849;61;961;-85
2021/08/06 02:13:01;312560.00;1.04;539.51;79226.00;0.26;137.70;;;;;21.80;1.00;;;;;;2271436;61;1282;-83
2021/08/06 02:15:29;164961.00;0.55;285.59;68043.00;0.23;118.38;;;;;21.80;1.00;;;;;;2265180;61;1922;-83
2021/08/06 02:17:58;265021.00;0.88;457.78;65881.00;0.22;114.64;;;;;21.60;1.00;;;;;;2262628;61;970;-83
2021/08/06 02:20:26;196306.00;0.65;339.56;72641.00;0.24;126.32;;;;;21.60;1.00;;;;;;2269526;61;953;-83
2021/08/06 02:22:54;194082.00;0.65;335.74;68674.00;0.23;119.47;;;;;21.70;1.00;;;;;;2272469;61;1282;-83
2021/08/06 02:25:23;159731.00;0.53;276.58;56426.00;0.19;98.30;;;;;21.70;1.00;;;;;;2269260;60;939;-83
2021/08/06 02:30:22;192991.00;0.64;333.86;66713.00;0.22;116.08;;;;;21.50;1.00;;;;;;2287273;60;1381;-82
2021/08/06 02:32:50;173862.00;0.58;300.92;59706.00;0.20;103.97;;;;;21.80;1.00;;;;;;2288175;60;1446;-83
2021/08/06 02:35:17;262182.00;0.87;452.90;63375.00;0.21;110.31;;;;;22.00;1.00;;;;;;2288412;60;1943;-83
2021/08/06 02:37:47;308432.00;1.03;532.41;68885.00;0.23;119.83;;;;;21.90;1.00;;;;;;2281014;60;1063;-84
2021/08/06 02:40:15;308466.00;1.03;532.47;62924.00;0.21;109.53;;;;;21.80;1.00;;;;;;2275713;60;986;-84
2021/08/06 02:42:43;218757.00;0.73;378.20;63917.00;0.21;111.25;;;;;21.70;1.00;;;;;;2280176;60;1305;-84
2021/08/06 02:50:08;232586.00;0.78;402.00;73859.00;0.25;128.43;;;;;21.20;1.00;;;;;;2286624;60;1128;-85
2021/08/06 02:55:04;637158.00;2.12;1098.42;63883.00;0.21;111.19;;;;;21.10;1.00;;;;;;2286295;60;1976;-83
2021/08/06 02:57:31;410590.00;1.37;708.01;166626.00;0.56;288.45;;;;;20.90;1.00;;;;;;2284897;60;989;-84
2021/08/06 02:59:58;216165.00;0.72;373.74;67797.00;0.23;117.95;;;;;21.00;1.00;;;;;;2279039;61;998;-83
2021/08/06 03:02:25;225648.00;0.75;390.06;52264.00;0.17;91.10;;;;;20.80;1.00;;;;;;2272787;61;1471;-84
2021/08/06 03:07:22;203599.00;0.68;352.12;69786.00;0.23;121.39;;;;;20.90;1.00;;;;;;2286423;60;1349;-83
2021/08/06 03:09:49;222410.00;0.74;384.49;70377.00;0.23;122.41;;;;;21.00;1.00;;;;;;2277799;60;1016;-83
2021/08/06 03:12:17;257001.00;0.86;443.99;69749.00;0.23;121.33;;;;;21.00;1.00;;;;;;2276002;61;1400;-84
2021/08/06 03:17:15;179691.00;0.60;310.96;66921.00;0.22;116.44;;;;;21.00;1.00;;;;;;2282867;60;1389;-83
2021/08/06 03:19:42;226343.00;0.75;391.26;68998.00;0.23;120.03;;;;;20.90;1.00;;;;;;2273838;60;1025;-82
2021/08/06 03:22:08;217412.00;0.72;375.89;64418.00;0.21;112.11;;;;;20.70;1.00;;;;;;2273852;60;1301;-84
2021/08/06 03:24:37;195339.00;0.65;337.90;68713.00;0.23;119.54;;;;;20.70;1.00;;;;;;2273742;61;959;-83
2021/08/06 03:27:04;167717.00;0.56;290.33;65341.00;0.22;113.71;;;;;20.80;1.00;;;;;;2280993;60;937;-82
2021/08/06 03:29:32;212288.00;0.71;367.07;70362.00;0.23;122.39;;;;;21.00;1.00;;;;;;2281022;60;917;-84
2021/08/06 03:31:59;216992.00;0.72;375.17;69887.00;0.23;121.57;;;;;21.10;1.00;;;;;;2273756;60;1447;-82
2021/08/06 03:34:25;180107.00;0.60;311.67;66583.00;0.22;115.86;;;;;21.30;1.00;;;;;;2280804;60;1998;-84
2021/08/06 03:41:50;440397.00;1.47;759.27;95276.00;0.32;165.42;;;;;21.80;1.00;;;;;;2286194;60;1331;-82
2021/08/06 03:46:44;165787.00;0.55;287.01;58670.00;0.20;102.18;;;;;21.60;1.00;;;;;;2286381;60;1408;-83
2021/08/06 03:49:11;166320.00;0.55;287.93;69595.00;0.23;121.06;;;;;21.70;1.00;;;;;;2284711;60;976;-83
2021/08/06 03:54:07;279755.00;0.93;483.12;68728.00;0.23;119.56;;;;;22.00;1.00;;;;;;2285039;60;1321;-83
2021/08/06 03:56:34;213458.00;0.71;369.09;70855.00;0.24;123.24;;;;;22.20;1.00;;;;;;2281219;60;2002;-83
2021/08/06 03:59:03;175527.00;0.59;303.79;70479.00;0.23;122.59;;;;;21.10;1.00;;;;;;2281112;60;973;-85
2021/08/06 04:01:29;394316.00;1.31;680.03;140698.00;0.47;243.77;;;;;20.80;1.00;;;;;;2277822;60;1324;-83
2021/08/06 04:03:56;211577.00;0.71;365.85;70078.00;0.23;121.90;;;;;20.80;1.00;;;;;;2277865;60;969;-83
2021/08/06 04:06:23;198721.00;0.66;343.72;75272.00;0.25;130.87;;;;;20.80;1.00;;;;;;2281082;60;984;-83
2021/08/06 04:08:51;242411.00;0.81;418.90;67784.00;0.23;117.93;;;;;20.80;1.00;;;;;;2280902;60;995;-83
2021/08/06 04:13:46;701991.00;2.34;1210.69;242169.00;0.81;418.48;;;;;21.10;1.00;;;;;;2534514;39;2021;31
2021/08/06 04:16:15;229563.00;0.77;396.80;72203.00;0.24;125.57;;;;;21.20;1.00;;;;;;2282055;60;1977;-85
2021/08/06 04:18:41;280843.00;0.94;484.99;73232.00;0.24;127.35;;;;;21.30;1.00;;;;;;2276140;61;999;-83
2021/08/06 04:21:09;328532.00;1.10;566.96;70595.00;0.24;122.79;;;;;21.40;1.00;;;;;;2276131;61;1079;-86
2021/08/06 04:26:04;267152.00;0.89;461.45;70159.00;0.23;122.04;;;;;21.40;1.00;;;;;;2286065;60;1411;-83
2021/08/06 04:28:31;268213.00;0.89;463.27;62152.00;0.21;108.20;;;;;21.40;1.00;;;;;;2284741;60;1011;-84
2021/08/06 04:31:00;424437.00;1.41;731.82;65828.00;0.22;114.55;;;;;21.40;1.00;;;;;;2277709;60;1048;-83
2021/08/06 04:33:28;199355.00;0.66;344.81;65476.00;0.22;113.94;;;;;21.50;1.00;;;;;;2284854;60;1309;-85
2021/08/06 04:35:55;593143.00;1.98;1022.38;111223.00;0.37;192.94;;;;;22.00;1.00;;;;;;2280849;60;2000;-82
2021/08/06 04:38:22;218494.00;0.73;377.75;73432.00;0.24;127.69;;;;;21.70;1.00;;;;;;2280815;60;1009;-83
2021/08/06 04:43:20;333268.00;1.11;575.10;67500.00;0.22;117.44;;;;;21.70;1.00;;;;;;2286347;60;1396;-85
2021/08/06 04:45:46;261904.00;0.87;452.42;68238.00;0.23;118.72;;;;;21.80;1.00;;;;;;2275969;61;1005;-84
2021/08/06 04:50:42;265402.00;0.88;458.44;81328.00;0.27;141.33;;;;;22.10;1.00;;;;;;2286264;60;1397;-84
2021/08/06 04:55:37;337671.00;1.13;582.67;85000.00;0.28;147.67;;;;;22.00;1.00;;;;;;2278664;60;1978;-83
2021/08/06 05:15:20;274282.00;0.91;473.71;68187.00;0.23;118.63;;;;;21.80;1.00;;;;;;2278391;60;1952;-87
2021/08/06 05:20:16;190209.00;0.63;329.07;0.00;0.00;0.62;;;;;21.80;1.00;;;;;;2402006;39;3566;31
2021/08/06 05:35:41;265020.00;0.88;457.78;69854.00;0.23;121.51;;;;;21.60;1.00;;;;;;2278600;60;1963;-83
2021/08/06 05:38:08;130089.00;0.43;225.48;0.00;0.00;0.62;;;;;21.70;1.00;;;;;;2276074;60;951;-84
2021/08/06 05:40:35;152014.00;0.51;263.28;0.00;0.00;0.62;;;;;21.60;1.00;;;;;;2263758;61;1000;-84
2021/08/06 05:43:02;0.00;0.00;0.62;0.00;0.00;0.62;;;;;21.70;1.00;;;;;;2263870;61;1401;-85
2021/08/06 05:45:29;0.00;0.00;0.62;0.00;0.00;0.62;;;;;21.90;1.00;;;;;;2264018;61;1025;-84
2021/08/06 05:47:57;39156.00;0.13;68.43;0.00;0.00;0.62;;;;;21.60;1.00;;;;;;2263943;61;1025;-84
2021/08/06 05:50:26;79519.00;0.27;138.21;0.00;0.00;0.62;;;;;21.50;1.00;;;;;;2263957;61;966;-84
2021/08/06 05:52:55;10950.00;0.04;19.59;0.00;0.00;0.62;;;;;21.30;1.00;;;;;;2253286;61;1311;-84
2021/08/06 05:55:22;0.00;0.00;0.62;0.00;0.00;0.62;;;;;21.20;1.00;;;;;;2260234;61;1918;-84
2021/08/06 05:57:49;0.00;0.00;0.62;0.00;0.00;0.62;;;;;21.30;1.00;;;;;;2259293;60;1009;-87
2021/08/06 06:00:23;0.00;0.00;0.62;0.00;0.00;0.62;;;;;21.30;1.00;;;;;;2268078;61;1052;-83
2021/08/06 06:02:50;15676.00;0.05;27.78;0.00;0.00;0.62;;;;;21.40;1.00;;;;;;2259811;61;1404;-81
2021/08/06 06:05:17;0.00;0.00;0.62;0.00;0.00;0.62;;;;;21.40;1.00;;;;;;2253390;61;994;-82
2021/08/06 06:07:46;0.00;0.00;0.62;0.00;0.00;0.62;;;;;21.50;1.00;;;;;;2251801;61;967;-85
2021/08/06 06:10:15;0.00;0.00;0.62;0.00;0.00;0.62;;;;;21.60;1.00;;;;;;2251722;61;1065;-84
2021/08/06 06:12:43;39554.00;0.13;69.12;0.00;0.00;0.62;;;;;22.00;1.00;;;;;;2251841;61;1423;-84
2021/08/06 06:15:11;288949.00;0.96;498.92;45186.00;0.15;78.86;;;;;22.10;1.00;;;;;;2239940;61;1922;-84
2021/08/06 06:17:39;0.00;0.00;0.62;0.00;0.00;0.62;;;;;22.30;1.00;;;;;;2242238;61;1069;-83
2021/08/06 06:20:07;171595.00;0.57;297.01;101026.00;0.34;175.34;;;;;22.80;1.00;;;;;;2246478;61;965;-85
2021/08/06 06:22:35;11071.00;0.04;19.80;0.00;0.00;0.62;;;;;23.00;1.00;;;;;;2259815;61;1290;-84
2021/08/06 06:25:01;267596.00;0.89;462.21;0.00;0.00;0.62;;;;;23.50;1.00;;;;;;2260957;61;1057;-85
2021/08/06 06:27:30;0.00;0.00;0.62;0.00;0.00;0.62;;;;;24.00;1.00;;;;;;2264341;61;1014;-85
2021/08/06 06:29:57;0.00;0.00;0.62;0.00;0.00;0.62;;;;;24.10;1.00;;;;;;2263340;61;1045;-87
2021/08/06 06:34:52;0.00;0.00;0.62;0.00;0.00;0.62;;;;;24.30;1.00;;;;;;2285371;60;1889;-84
2021/08/06 06:39:47;22524.00;0.08;39.64;0.00;0.00;0.62;;;;;25.70;1.00;;;;;;2286501;61;1301;-88
2021/08/06 06:42:13;0.00;0.00;0.62;0.00;0.00;0.62;;;;;27.40;1.00;;;;;;2283796;60;1346;-84
2021/08/06 06:47:10;440003.00;1.47;758.59;0.00;0.00;0.62;;;;;29.60;1.00;;;;;;2285641;60;1397;-83
2021/08/06 06:52:06;76380.00;0.25;132.78;0.00;0.00;0.62;;;;;31.70;1.00;;;;;;2285601;61;1356;-84
2021/08/06 06:57:07;1512095.00;5.04;2665.90;0.00;0.00;0.62;;;;;32.50;1.00;;;;;;2286896;61;1960;-86
2021/08/06 07:04:31;158611.00;0.53;274.65;49462.00;0.16;86.26;;;;;33.90;1.00;;;;;;2282296;61;1164;-85
2021/08/06 07:06:57;53168.00;0.18;92.66;0.00;0.00;0.62;;;;;34.40;1.00;;;;;;2280443;60;949;-82
2021/08/06 07:09:24;0.00;0.00;0.62;0.00;0.00;0.62;;;;;34.30;1.00;;;;;;2270694;61;974;-83
2021/08/06 07:11:51;30166.00;0.10;52.87;0.00;0.00;0.62;;;;;33.90;1.00;;;;;;2271650;61;1363;-83
2021/08/06 07:14:18;0.00;0.00;0.62;0.00;0.00;0.62;;;;;34.30;1.00;;;;;;2259528;61;950;-85
2021/08/06 07:16:45;2607.00;0.01;5.14;0.00;0.00;0.62;;;;;33.90;1.00;;;;;;2252868;61;1995;-83
2021/08/06 07:19:12;0.00;0.00;0.62;0.00;0.00;0.62;;;;;33.30;1.00;;;;;;2253130;61;990;-83
2021/08/06 07:21:43;0.00;0.00;0.62;0.00;0.00;0.62;;;;;32.00;1.00;;;;;;2253006;61;1464;-82
2021/08/06 07:24:10;0.00;0.00;0.62;0.00;0.00;0.62;;;;;31.00;1.00;;;;;;2253152;61;1014;-83
2021/08/06 07:26:37;0.00;0.00;0.62;0.00;0.00;0.62;;;;;29.50;1.00;;;;;;2260570;61;1052;-85
2021/08/06 07:31:32;8473.00;0.03;15.30;0.00;0.00;0.62;;;;;26.10;1.00;;;;;;2282535;61;1407;-83
2021/08/06 07:36:27;0.00;0.00;0.62;0.00;0.00;0.62;;;;;25.30;1.00;;;;;;2286928;60;1965;-83
2021/08/06 07:38:55;138356.00;0.46;239.74;0.00;0.00;0.62;;;;;24.90;1.00;;;;;;2280555;61;985;-84
2021/08/06 07:41:22;0.00;0.00;0.62;0.00;0.00;0.62;;;;;24.50;1.00;;;;;;2277137;61;1036;-84
2021/08/06 07:43:49;74519.00;0.25;129.57;0.00;0.00;0.62;;;;;23.60;1.00;;;;;;2273285;61;1018;-82
2021/08/06 07:46:16;0.00;0.00;0.62;0.00;0.00;0.62;;;;;23.30;1.00;;;;;;2276453;61;1059;-84
2021/08/06 07:48:43;0.00;0.00;0.62;0.00;0.00;0.62;;;;;23.30;1.00;;;;;;2509682;39;3917;31
2021/08/06 07:53:38;37256.00;0.12;65.14;0.00;0.00;0.62;;;;;24.00;1.00;;;;;;2286647;60;1361;-83
2021/08/06 07:58:35;44838.00;0.15;78.26;0.00;0.00;0.62;;;;;24.60;1.00;;;;;;2287467;61;1285;-84
2021/08/06 08:05:58;0.00;0.00;0.62;0.00;0.00;0.62;;;;;24.70;1.00;;;;;;2525058;39;3586;31
2021/08/06 08:08:26;0.00;0.00;0.62;0.00;0.00;0.62;;;;;25.50;1.00;;;;;;2286866;60;1164;-85
2021/08/06 08:13:21;37857.00;0.13;66.18;0.00;0.00;0.62;;;;;26.20;1.00;;;;;;2287279;61;1384;-85
2021/08/06 08:15:50;0.00;0.00;0.62;0.00;0.00;0.62;;;;;26.90;1.00;;;;;;2279963;61;2009;-82
2021/08/06 08:18:17;0.00;0.00;0.62;0.00;0.00;0.62;;;;;27.70;1.00;;;;;;2279669;61;1013;-82
2021/08/06 08:20:47;0.00;0.00;0.62;0.00;0.00;0.62;;;;;28.60;1.00;;;;;;2280075;61;1019;-83
2021/08/06 08:23:14;71869.00;0.24;124.99;0.00;0.00;0.62;;;;;29.10;1.00;;;;;;2273868;60;1516;-84
2021/08/06 08:28:09;112727.00;0.38;195.54;38053.00;0.13;66.52;;;;;28.50;1.00;;;;;;2287321;61;1289;-86
2021/08/06 08:30:37;0.00;0.00;0.62;0.00;0.00;0.62;;;;;28.00;1.00;;;;;;2285566;61;387;-88
2021/08/06 08:35:35;0.00;0.00;0.62;0.00;0.00;0.62;;;;;27.20;1.00;;;;;;2287551;61;1883;-86
2021/08/06 08:40:31;0.00;0.00;0.62;0.00;0.00;0.62;;;;;26.50;1.00;;;;;;2287128;61;1290;-87
2021/08/06 08:45:26;67345.00;0.22;117.17;0.00;0.00;0.62;;;;;27.70;1.00;;;;;;2286680;60;2157;-85
2021/08/06 08:50:21;0.00;0.00;0.62;0.00;0.00;0.62;;;;;27.80;1.00;;;;;;2287214;61;1309;-87
2021/08/06 08:52:50;0.00;0.00;0.62;0.00;0.00;0.62;;;;;27.50;1.00;;;;;;2284798;61;1389;-88
2021/08/06 08:55:17;0.00;0.00;0.62;0.00;0.00;0.62;;;;;27.70;1.00;;;;;;2274748;61;957;-89
2021/08/06 08:57:44;0.00;0.00;0.62;0.00;0.00;0.62;;;;;26.90;1.00;;;;;;2276680;61;1941;-89
2021/08/06 09:02:39;10078.00;0.03;18.08;0.00;0.00;0.62;;;;;26.60;1.00;;;;;;2287205;61;1391;-85
2021/08/06 09:05:12;0.00;0.00;0.62;0.00;0.00;0.62;;;;;25.90;1.00;;;;;;2285414;61;502;-89
2021/08/06 09:07:39;0.00;0.00;0.62;0.00;0.00;0.62;;;;;26.00;1.00;;;;;;2285367;61;391;-89
2021/08/06 09:10:10;0.00;0.00;0.62;0.00;0.00;0.62;;;;;26.30;1.00;;;;;;2284572;60;1047;-83
2021/08/06 09:17:37;0.00;0.00;0.62;0.00;0.00;0.62;;;;;27.20;1.00;;;;;;2278439;61;1962;-86
2021/08/06 09:22:32;0.00;0.00;0.62;0.00;0.00;0.62;;;;;26.80;1.00;;;;;;2278517;61;1355;-87
2021/08/06 09:25:16;302346.00;1.01;521.95;70528.00;0.24;122.67;;;;;26.40;1.00;;;;;;2277040;61;391;-87
2021/08/06 09:30:32;0.00;0.00;0.62;0.00;0.00;0.62;;;;;26.50;1.00;;;;;;2278701;61;1270;-86
2021/08/06 09:33:00;144710.00;0.48;250.69;8288.00;0.03;14.98;;;;;26.90;1.00;;;;;;2267624;61;1440;-84
2021/08/06 09:37:58;0.00;0.00;0.62;0.00;0.00;0.62;;;;;25.70;1.00;;;;;;2278497;61;2002;-86
2021/08/06 09:40:28;0.00;0.00;0.62;0.00;0.00;0.62;;;;;25.90;1.00;;;;;;2272373;61;942;-89
2021/08/06 09:42:58;217221.00;0.72;375.56;44525.00;0.15;77.72;;;;;26.00;1.00;;;;;;2261897;61;1365;-84
2021/08/06 09:45:27;0.00;0.00;0.62;0.00;0.00;0.62;;;;;25.40;1.00;;;;;;2271727;61;994;-82
2021/08/06 10:07:40;56208.00;0.19;97.92;0.00;0.00;0.62;;;;;25.90;1.00;;;;;;2278179;60;1369;-83
2021/08/06 10:12:35;69170.00;0.23;120.33;0.00;0.00;0.62;;;;;26.60;1.00;;;;;;2277942;60;1431;-83
2021/08/06 10:15:05;103316.00;0.34;179.30;0.00;0.00;0.62;;;;;26.70;1.00;;;;;;2276505;60;854;-85
2021/08/06 10:17:32;0.00;0.00;0.62;0.00;0.00;0.62;;;;;26.10;1.00;;;;;;2269153;60;1998;-83
2021/08/06 10:22:26;159570.00;0.53;276.30;0.00;0.00;0.62;;;;;25.80;1.00;;;;;;2285740;60;1398;-83
2021/08/06 10:24:56;94310.00;0.31;163.75;0.00;0.00;0.62;;;;;25.90;1.00;;;;;;2284362;60;959;-81
2021/08/06 10:27:25;68739.00;0.23;119.58;0.00;0.00;0.62;;;;;26.10;1.00;;;;;;2273731;60;967;-83
2021/08/06 10:29:58;142832.00;0.48;247.45;0.00;0.00;0.62;;;;;25.90;1.00;;;;;;2273892;60;975;-83
2021/08/06 10:35:19;312687.00;1.04;539.73;0.00;0.00;0.62;;;;;25.60;1.00;;;;;;2284292;60;1396;-83
2021/08/06 10:37:53;0.00;0.00;0.62;0.00;0.00;0.62;;;;;25.60;1.00;;;;;;2284309;60;2001;-82
2021/08/06 10:41:02;174751.00;0.58;302.45;4272.00;0.01;8.02;;;;;25.60;1.00;;;;;;2277282;60;1139;-83
2021/08/06 10:45:59;0.00;0.00;0.62;0.00;0.00;0.62;;;;;25.90;1.00;;;;;;2286349;60;1369;-83
2021/08/06 10:48:39;196101.00;0.65;339.21;35425.00;0.12;61.97;;;;;26.40;1.00;;;;;;2284437;60;1061;-82
2021/08/06 10:51:25;6566.00;0.02;12.00;0.00;0.00;0.62;;;;;26.60;1.00;;;;;;2280564;60;1011;-83
2021/08/06 10:54:34;0.00;0.00;0.62;0.00;0.00;0.62;;;;;27.10;1.00;;;;;;2279782;61;946;-83
2021/08/06 10:57:28;0.00;0.00;0.62;0.00;0.00;0.62;;;;;27.20;1.00;;;;;;2271166;61;2003;-84
2021/08/06 10:59:56;0.00;0.00;0.62;0.00;0.00;0.62;;;;;27.20;1.00;;;;;;2271660;61;1038;-82
2021/08/06 11:02:50;0.00;0.00;0.62;0.00;0.00;0.62;;;;;27.00;1.00;;;;;;2265234;61;1368;-82
2021/08/06 11:05:47;176987.00;0.59;306.30;0.00;0.00;0.62;;;;;27.20;1.00;;;;;;2265872;61;1037;-84
2021/08/06 11:08:53;23519.00;0.08;41.36;0.00;0.00;0.62;;;;;27.20;1.00;;;;;;2264362;61;1009;-83
2021/08/06 11:11:45;33859.00;0.11;59.26;0.00;0.00;0.62;;;;;27.30;1.00;;;;;;2256456;61;926;-83
2021/08/06 11:14:13;0.00;0.00;0.62;0.00;0.00;0.62;;;;;27.40;1.00;;;;;;2237717;61;981;-83
2021/08/06 11:17:02;57004.00;0.19;99.30;0.00;0.00;0.62;;;;;27.70;1.00;;;;;;2243858;61;1987;-81
2021/08/06 11:22:02;261646.00;0.87;451.98;0.00;0.00;0.62;;;;;28.20;1.00;;;;;;2278924;60;1423;-81
2021/08/06 11:24:36;378671.00;1.26;653.14;90249.00;0.30;156.74;;;;;28.20;1.00;;;;;;2269988;61;920;-81
2021/08/06 11:27:04;0.00;0.00;0.62;0.00;0.00;0.62;;;;;28.40;1.00;;;;;;2269876;60;957;-81
2021/08/06 11:29:31;274899.00;0.92;474.77;44754.00;0.15;78.11;;;;;28.50;1.00;;;;;;2277137;60;965;-84
2021/08/06 11:32:04;0.00;0.00;0.62;0.00;0.00;0.62;;;;;28.30;1.00;;;;;;2269870;61;1346;-81
2021/08/06 11:34:49;0.00;0.00;0.62;0.00;0.00;0.62;;;;;28.20;1.00;;;;;;2269892;61;938;-82
2021/08/06 11:37:17;0.00;0.00;0.62;0.00;0.00;0.62;;;;;27.80;1.00;;;;;;2269797;60;1911;-83
2021/08/06 11:40:07;21469.00;0.07;37.81;0.00;0.00;0.62;;;;;27.20;1.00;;;;;;2269863;60;931;-83
2021/08/06 11:42:35;0.00;0.00;0.62;0.00;0.00;0.62;;;;;27.20;1.00;;;;;;2269770;60;1433;-83
2021/08/06 11:45:02;0.00;0.00;0.62;0.00;0.00;0.62;;;;;27.20;1.00;;;;;;2269949;60;961;-82
2021/08/06 11:47:37;42663.00;0.14;74.50;0.00;0.00;0.62;;;;;27.30;1.00;;;;;;2276812;61;988;-82
2021/08/06 11:50:05;74597.00;0.25;129.70;0.00;0.00;0.62;;;;;27.50;1.00;;;;;;2276964;60;978;-83
2021/08/06 11:52:43;0.00;0.00;0.62;0.00;0.00;0.62;;;;;27.70;1.00;;;;;;2269618;60;1385;-85
2021/08/06 11:55:11;103175.00;0.34;179.05;0.00;0.00;0.62;;;;;27.50;1.00;;;;;;2277049;61;947;-81
2021/08/06 11:57:46;0.00;0.00;0.62;0.00;0.00;0.62;;;;;27.30;1.00;;;;;;2269619;61;1931;-85
2021/08/06 12:00:18;5255.00;0.02;9.73;0.00;0.00;0.62;;;;;27.00;1.00;;;;;;2268941;61;1065;-84
2021/08/06 12:02:45;28091.00;0.09;49.28;0.00;0.00;0.62;;;;;26.90;1.00;;;;;;2264053;61;1375;-83
2021/08/06 12:05:23;82675.00;0.28;143.66;0.00;0.00;0.62;;;;;26.80;1.00;;;;;;2254485;61;978;-84
2021/08/06 12:07:54;29942.00;0.10;52.48;0.00;0.00;0.62;;;;;27.10;1.00;;;;;;2252333;61;955;-83
2021/08/06 12:10:25;192314.00;0.64;332.69;0.00;0.00;0.62;;;;;27.20;1.00;;;;;;2248554;61;1058;-82
2021/08/06 12:12:53;315630.00;1.05;544.79;68820.00;0.23;119.72;;;;;27.30;1.00;;;;;;2248286;61;1414;-83
2021/08/06 12:15:25;277235.00;0.92;478.78;64405.00;0.21;112.09;;;;;27.50;1.00;;;;;;2248233;61;1010;-84
2021/08/06 12:18:15;263672.00;0.88;455.46;80476.00;0.27;139.86;;;;;27.50;1.00;;;;;;2248291;61;1987;-84
2021/08/06 12:20:43;84627.00;0.28;147.03;0.00;0.00;0.62;;;;;27.30;1.00;;;;;;2322411;39;4187;31
2021/08/06 12:23:16;154541.00;0.52;267.63;0.00;0.00;0.62;;;;;27.30;1.00;;;;;;2284624;60;1447;-82
2021/08/06 12:26:05;117766.00;0.39;204.23;0.00;0.00;0.62;;;;;27.40;1.00;;;;;;2284637;60;1024;-82
2021/08/06 12:28:32;166899.00;0.56;288.92;0.00;0.00;0.62;;;;;27.80;1.00;;;;;;2284622;60;960;-82
2021/08/06 12:31:16;0.00;0.00;0.62;0.00;0.00;0.62;;;;;28.00;1.00;;;;;;2284739;60;995;-84
2021/08/06 12:33:44;47517.00;0.16;82.89;0.00;0.00;0.62;;;;;28.10;1.00;;;;;;2522456;39;2227;31
2021/08/06 12:36:14;167383.00;0.56;289.76;0.00;0.00;0.62;;;;;28.40;1.00;;;;;;2286346;60;1381;-80
2021/08/06 12:38:43;57566.00;0.19;100.27;0.00;0.00;0.62;;;;;28.00;1.00;;;;;;2279996;61;1929;-84
2021/08/06 12:41:10;0.00;0.00;0.62;0.00;0.00;0.62;;;;;27.70;1.00;;;;;;2273211;61;1015;-85
2021/08/06 12:43:37;0.00;0.00;0.62;0.00;0.00;0.62;;;;;27.60;1.00;;;;;;2279608;61;1336;-82
2021/08/06 12:46:12;53126.00;0.18;92.59;0.00;0.00;0.62;;;;;27.50;1.00;;;;;;2270153;61;991;-85
2021/08/06 12:49:04;216771.00;0.72;374.79;61954.00;0.21;107.85;;;;;27.30;1.00;;;;;;2280096;61;1022;-84
2021/08/06 12:51:32;480508.00;1.60;828.27;100149.00;0.33;173.83;;;;;27.10;1.00;;;;;;2275725;61;1471;-82
2021/08/06 12:54:00;172250.00;0.57;298.14;66831.00;0.22;116.28;;;;;26.90;1.00;;;;;;2266234;61;1018;-82
2021/08/06 12:56:27;170971.00;0.57;295.94;68226.00;0.23;118.69;;;;;27.20;1.00;;;;;;2269349;61;988;-83
2021/08/06 12:59:19;360101.00;1.20;621.22;147145.00;0.49;254.89;;;;;27.40;1.00;;;;;;2271900;61;945;-83
2021/08/06 13:01:47;120593.00;0.40;209.11;5748.00;0.02;10.58;;;;;27.60;1.00;;;;;;2248104;61;1429;-82
2021/08/06 13:04:14;59533.00;0.20;103.67;0.00;0.00;0.62;;;;;27.60;1.00;;;;;;2241727;61;1035;-84
2021/08/06 13:06:48;229506.00;0.77;396.70;66059.00;0.22;114.95;;;;;27.60;1.00;;;;;;2248138;61;1012;-79
2021/08/06 13:09:41;178777.00;0.60;309.38;64436.00;0.21;112.14;;;;;27.50;1.00;;;;;;2249684;61;1006;-82
2021/08/06 13:12:13;88578.00;0.30;153.85;0.00;0.00;0.62;;;;;27.30;1.00;;;;;;2245526;61;1374;-81
2021/08/06 13:14:42;41632.00;0.14;72.71;0.00;0.00;0.62;;;;;27.30;1.00;;;;;;2253042;61;990;-84
2021/08/06 13:17:10;132524.00;0.44;229.68;0.00;0.00;0.62;;;;;27.50;1.00;;;;;;2254146;61;1933;-82
2021/08/06 13:19:37;177601.00;0.59;307.36;21854.00;0.07;38.48;;;;;27.80;1.00;;;;;;2261112;61;979;-83
2021/08/06 13:22:07;228740.00;0.76;395.38;23320.00;0.08;41.02;;;;;27.70;1.00;;;;;;2275755;61;1435;-84
2021/08/06 13:24:35;117660.00;0.39;204.05;0.00;0.00;0.62;;;;;27.50;1.00;;;;;;2265042;61;1000;-81